Time;durP1;ratioP1;P1;durP2;ratioP2;P2;SDS_P1;SDS_P2;PMS_P1;PMS_P2;Temp;Humidity;BMP_temperature;BMP_pressure;BME280_temperature;BME280_humidity;BME280_pressure;Samples;Min_cycle;Max_cycle;Signal;HPM_P1;HPM_P2
2021/01/30 00:00:39;;;;;;;16.78;8.82;;;;;;;-3.09;69.56;97552.13;346415;115;1961953;-72
2021/01/30 00:01:47;;;;;;;15.46;8.64;;;;;;;-3.08;69.51;97559.05;347515;115;1963958;-71
2021/01/30 00:02:52;;;;;;;17.97;9.01;;;;;;;-3.06;69.41;97564.17;348196;115;1960873;-71
2021/01/30 00:03:58;;;;;;;22.37;11.21;;;;;;;-3.07;69.25;97549.30;323890;115;2490854;-71
2021/01/30 00:05:05;;;;;;;20.28;10.37;;;;;;;-3.09;69.40;97560.05;330822;115;1961957;-71
2021/01/30 00:06:11;;;;;;;19.72;10.45;;;;;;;-3.10;69.32;97567.16;349644;113;1965098;-72
2021/01/30 00:07:18;;;;;;;14.12;7.78;;;;;;;-3.11;69.24;97572.60;350920;113;1962070;-72
2021/01/30 00:08:24;;;;;;;16.38;8.26;;;;;;;-3.12;69.21;97578.89;346313;115;1961903;-72
2021/01/30 00:09:30;;;;;;;17.24;9.04;;;;;;;-3.15;69.34;97568.64;330839;113;2412933;-72
2021/01/30 00:10:36;;;;;;;17.48;8.88;;;;;;;-3.16;69.20;97562.55;351320;113;1961981;-72
2021/01/30 00:11:41;;;;;;;17.72;8.81;;;;;;;-3.14;69.07;97572.95;350545;113;1963956;-70
2021/01/30 00:12:47;;;;;;;13.76;7.48;;;;;;;-3.16;69.20;97596.05;348045;115;1962881;-72
2021/01/30 00:13:52;;;;;;;13.23;8.33;;;;;;;-3.19;69.21;97577.91;326661;114;2207022;-72
2021/01/30 00:14:57;;;;;;;15.47;7.96;;;;;;;-3.22;69.27;97587.00;338293;114;1962058;-72
2021/01/30 00:16:05;;;;;;;18.21;8.80;;;;;;;-3.24;69.27;97577.59;344920;115;1962029;-72
2021/01/30 00:17:11;;;;;;;16.53;8.92;;;;;;;-3.27;69.46;97577.95;327593;113;1961954;-71
2021/01/30 00:18:16;;;;;;;15.13;8.91;;;;;;;-3.27;69.43;97577.95;353555;113;1961943;-73
2021/01/30 00:19:22;;;;;;;17.24;9.80;;;;;;;-3.29;69.58;97593.13;351522;113;1964033;-72
2021/01/30 00:20:31;;;;;;;13.83;9.22;;;;;;;-3.28;69.91;97587.69;336869;113;2339969;-72
2021/01/30 00:21:38;;;;;;;13.31;8.00;;;;;;;-3.30;69.62;97581.75;310419;114;2169204;-73
2021/01/30 00:22:55;;;;;;;16.16;8.64;;;;;;;-3.33;69.68;97587.37;352742;113;1961949;-73
2021/01/30 00:24:01;;;;;;;18.06;8.49;;;;;;;-3.35;69.74;97587.52;340897;110;2862920;-73
2021/01/30 00:25:07;;;;;;;17.50;9.28;;;;;;;-3.35;69.99;97594.63;346249;110;1961045;-73
2021/01/30 00:26:13;;;;;;;15.94;9.60;;;;;;;-3.36;69.97;97590.32;357289;110;1961991;-73
2021/01/30 00:27:21;;;;;;;17.69;8.74;;;;;;;-3.36;69.94;97591.17;334361;111;2450994;-73
2021/01/30 00:28:26;;;;;;;16.64;8.14;;;;;;;-3.37;70.04;97589.50;356831;110;1961990;-73
2021/01/30 00:29:33;;;;;;;12.24;6.19;;;;;;;-3.37;69.79;97586.86;358307;111;1961981;-72
2021/01/30 00:30:39;;;;;;;15.57;8.31;;;;;;;-3.38;69.85;97603.70;357903;110;1961979;-73
2021/01/30 00:31:45;;;;;;;16.21;8.44;;;;;;;-3.36;70.00;97587.68;353484;112;1961942;-73
2021/01/30 00:32:51;;;;;;;15.42;8.77;;;;;;;-3.36;70.04;97599.09;326663;112;2204022;-73
2021/01/30 00:33:57;;;;;;;12.72;7.30;;;;;;;-3.35;70.08;97592.80;353566;112;1961914;-72
2021/01/30 00:35:03;;;;;;;12.79;7.66;;;;;;;-3.34;69.97;97599.72;352861;112;1961980;-73
2021/01/30 00:36:09;;;;;;;16.06;7.76;;;;;;;-3.36;70.11;97607.01;321219;110;2719974;-73
2021/01/30 00:37:21;;;;;;;13.83;7.19;;;;;;;-3.33;70.18;97593.47;329701;111;1961908;-73
2021/01/30 00:38:27;;;;;;;11.64;5.97;;;;;;;-3.27;70.06;97591.96;357760;110;1961981;-73
2021/01/30 00:39:33;;;;;;;14.37;6.38;;;;;;;-3.16;69.67;97598.70;339849;110;2311893;-73
2021/01/30 00:40:39;;;;;;;11.45;6.55;;;;;;;-3.11;69.32;97597.19;356194;110;1961952;-73
2021/01/30 00:41:45;;;;;;;12.96;6.84;;;;;;;-3.05;69.20;97590.40;353138;112;1962027;-73
2021/01/30 00:42:51;;;;;;;12.16;6.32;;;;;;;-3.04;69.08;97596.50;356325;110;1961939;-73
2021/01/30 00:43:58;;;;;;;11.00;7.24;;;;;;;-3.05;69.02;97600.96;356600;110;1961935;-73
2021/01/30 00:45:06;;;;;;;12.60;6.97;;;;;;;-3.10;68.83;97596.21;357287;110;1961934;-73
2021/01/30 00:46:12;;;;;;;14.66;7.56;;;;;;;-3.17;68.85;97608.44;357068;110;1964024;-72
2021/01/30 00:47:17;;;;;;;16.74;8.14;;;;;;;-3.28;69.11;97607.96;355990;111;1961882;-73
2021/01/30 00:48:23;;;;;;;14.72;8.37;;;;;;;-3.34;69.22;97602.36;318467;111;2233990;-74
2021/01/30 00:49:28;;;;;;;13.69;8.11;;;;;;;-3.38;69.29;97613.45;352477;112;1962028;-73
2021/01/30 00:50:36;;;;;;;16.11;7.34;;;;;;;-3.45;69.24;97608.00;325180;110;2638969;-73
2021/01/30 00:51:42;;;;;;;13.74;7.38;;;;;;;-3.55;69.57;97615.27;357038;111;1961920;-72
2021/01/30 00:52:48;;;;;;;13.91;7.19;;;;;;;-3.62;69.52;97606.39;351181;112;1962988;-72
2021/01/30 00:53:55;;;;;;;15.21;8.16;;;;;;;-3.72;69.85;97624.20;330378;112;1960728;-72
2021/01/30 00:55:01;;;;;;;14.89;7.64;;;;;;;-3.81;69.99;97612.81;356022;110;1963992;-73
2021/01/30 00:56:07;;;;;;;14.65;8.52;;;;;;;-3.91;70.06;97609.55;357161;111;1962987;-73
2021/01/30 00:57:13;;;;;;;13.10;8.32;;;;;;;-4.01;70.53;97604.42;331316;113;2368948;-72
2021/01/30 00:58:18;;;;;;;12.69;6.78;;;;;;;-4.05;70.38;97603.94;329224;111;1960906;-73
2021/01/30 00:59:24;;;;;;;11.34;6.62;;;;;;;-4.09;70.77;97607.05;348511;113;1961926;-72
2021/01/30 01:00:31;;;;;;;10.61;6.29;;;;;;;-4.06;70.97;97617.27;339175;111;2320980;-72
2021/01/30 01:01:40;;;;;;;12.08;6.38;;;;;;;-4.05;71.14;97608.36;353405;114;1961912;-72
2021/01/30 01:02:48;;;;;;;12.92;6.82;;;;;;;-4.00;71.16;97616.61;353203;112;1962022;-73
2021/01/30 01:03:55;;;;;;;11.75;6.69;;;;;;;-3.91;70.99;97609.55;305566;114;2826073;-72
2021/01/30 01:05:00;;;;;;;10.80;5.13;;;;;;;-3.88;70.88;97612.66;327405;114;1964971;-72
2021/01/30 01:06:06;;;;;;;12.05;6.68;;;;;;;-3.76;70.75;97619.27;356466;111;1962118;-72
2021/01/30 01:07:15;;;;;;;14.26;7.00;;;;;;;-3.73;70.32;97615.47;356761;111;1961959;-72
2021/01/30 01:08:20;;;;;;;9.88;5.60;;;;;;;-3.66;70.36;97616.44;357485;110;1961927;-73
2021/01/30 01:09:25;;;;;;;10.66;4.92;;;;;;;-3.60;69.77;97626.34;357749;110;1961099;-73
2021/01/30 01:10:31;;;;;;;14.89;6.87;;;;;;;-3.55;69.67;97631.10;358345;111;1960880;-73
2021/01/30 01:11:40;;;;;;;10.69;6.57;;;;;;;-3.55;69.31;97618.76;336601;111;1962050;-72
2021/01/30 01:12:47;;;;;;;12.26;6.67;;;;;;;-3.52;69.20;97624.67;326300;110;2608025;-72
2021/01/30 01:13:52;;;;;;;12.89;7.78;;;;;;;-3.61;68.95;97619.41;355475;111;1961905;-72
2021/01/30 01:14:57;;;;;;;14.46;7.63;;;;;;;-3.71;69.05;97624.02;357719;111;1961927;-71
2021/01/30 01:16:04;;;;;;;12.18;6.99;;;;;;;-3.80;69.28;97625.03;357160;110;1961983;-72
2021/01/30 01:17:09;;;;;;;14.74;7.18;;;;;;;-3.91;69.39;97618.27;327589;112;1961984;-72
2021/01/30 01:18:15;;;;;;;13.10;7.71;;;;;;;-4.04;69.65;97631.13;351529;112;1961964;-73
2021/01/30 01:19:20;;;;;;;14.67;7.37;;;;;;;-4.15;69.74;97632.27;352756;111;1961732;-73
2021/01/30 01:20:27;;;;;;;13.70;7.70;;;;;;;-4.31;70.41;97621.67;315359;113;2734982;-72
2021/01/30 01:21:33;;;;;;;12.48;7.11;;;;;;;-4.36;70.21;97637.17;355113;112;1961954;-72
2021/01/30 01:22:38;;;;;;;12.11;6.52;;;;;;;-4.43;70.65;97629.89;356706;112;1961904;-72
2021/01/30 01:23:44;;;;;;;13.39;6.71;;;;;;;-4.45;70.67;97636.31;350533;114;1961963;-72
2021/01/30 01:24:50;;;;;;;13.74;7.35;;;;;;;-4.49;70.90;97640.27;333902;112;2373938;-72
2021/01/30 01:25:56;;;;;;;12.12;6.68;;;;;;;-4.51;71.29;97629.06;333548;114;1963999;-72
2021/01/30 01:27:01;;;;;;;10.21;5.42;;;;;;;-4.45;71.18;97642.40;353444;112;1961943;-72
2021/01/30 01:28:07;;;;;;;13.62;6.69;;;;;;;-4.37;70.85;97640.78;353167;112;1964951;-72
2021/01/30 01:29:15;;;;;;;12.81;6.14;;;;;;;-4.33;70.75;97648.21;348970;113;1961951;-73
2021/01/30 01:30:23;;;;;;;10.14;6.14;;;;;;;-4.28;70.52;97637.19;348404;113;1960744;-72
2021/01/30 01:31:28;;;;;;;11.35;6.29;;;;;;;-4.29;70.42;97631.07;314460;112;2048987;-73
2021/01/30 01:32:33;;;;;;;11.68;5.63;;;;;;;-4.23;70.41;97632.26;350679;113;1960767;-71
2021/01/30 01:33:40;;;;;;;11.08;6.48;;;;;;;-4.18;70.39;97643.14;349127;113;1960802;-71
2021/01/30 01:34:45;;;;;;;11.42;6.30;;;;;;;-4.17;70.20;97641.33;351706;113;1960790;-71
2021/01/30 01:35:51;;;;;;;13.49;7.09;;;;;;;-4.13;70.16;97643.45;317954;113;2606892;-70
2021/01/30 01:37:00;;;;;;;13.32;6.09;;;;;;;-4.07;69.86;97642.82;349831;112;1960779;-71
2021/01/30 01:38:05;;;;;;;10.93;5.22;;;;;;;-4.03;69.61;97643.31;316067;113;2238859;-70
2021/01/30 01:39:10;;;;;;;12.60;6.58;;;;;;;-3.99;69.46;97634.09;345505;113;1961966;-70
2021/01/30 01:40:19;;;;;;;12.17;7.31;;;;;;;-4.01;69.29;97639.52;348967;113;1962048;-70
2021/01/30 01:41:24;;;;;;;13.79;6.93;;;;;;;-4.07;69.19;97639.37;338400;113;1961813;-70
2021/01/30 01:42:29;;;;;;;13.16;7.06;;;;;;;-4.19;69.31;97646.75;348890;113;1962951;-70
2021/01/30 01:43:35;;;;;;;13.59;7.98;;;;;;;-4.28;69.35;97638.01;349499;113;1961979;-70
2021/01/30 01:44:43;;;;;;;13.89;7.44;;;;;;;-4.37;69.41;97648.69;309217;115;2835859;-71
2021/01/30 01:46:14;;;;;;;12.80;7.11;;;;;;;-4.48;69.41;97641.91;348662;114;1961915;-71
2021/01/30 01:47:23;;;;;;;13.51;7.07;;;;;;;-4.59;69.73;97648.30;352890;108;2241009;-71
2021/01/30 01:48:33;;;;;;;15.06;8.05;;;;;;;-4.71;69.80;97634.61;342414;106;2358921;-70
2021/01/30 01:49:41;;;;;;;16.73;8.69;;;;;;;-4.83;70.15;97638.50;346134;111;2240929;-72
2021/01/30 01:50:50;;;;;;;14.69;6.96;;;;;;;-4.92;70.14;97635.02;331527;111;2489948;-71
2021/01/30 01:52:12;;;;;;;13.69;6.74;;;;;;;-4.98;70.39;97640.08;359281;113;1961940;-72
2021/01/30 01:53:23;;;;;;;11.67;6.58;;;;;;;-5.07;71.28;97644.48;337551;111;2230923;-71
2021/01/30 01:54:30;;;;;;;11.77;6.36;;;;;;;-5.05;71.59;97641.67;359426;110;1964042;-71
2021/01/30 01:55:40;;;;;;;12.31;6.57;;;;;;;-5.01;71.47;97638.58;314373;110;2850994;-71
2021/01/30 01:56:47;;;;;;;13.51;6.34;;;;;;;-4.97;71.50;97639.11;331038;110;2518982;-71
2021/01/30 01:57:56;;;;;;;13.83;7.11;;;;;;;-4.93;71.30;97635.16;356640;111;1961939;-71
2021/01/30 01:59:08;;;;;;;12.50;6.50;;;;;;;-4.93;71.21;97638.62;358763;110;1964011;-71
2021/01/30 02:00:17;;;;;;;11.26;6.54;;;;;;;-4.88;71.27;97644.23;333756;112;2457977;-71
2021/01/30 02:01:23;;;;;;;11.89;5.97;;;;;;;-4.79;70.98;97646.90;358560;110;1962001;-71
2021/01/30 02:02:31;;;;;;;11.43;6.41;;;;;;;-4.74;71.02;97639.34;340063;111;2332929;-71
2021/01/30 02:03:40;;;;;;;13.67;7.32;;;;;;;-4.73;70.80;97633.94;360111;110;1961955;-71
2021/01/30 02:04:50;;;;;;;11.14;6.20;;;;;;;-4.68;70.63;97638.73;359179;110;1962051;-72
2021/01/30 02:06:01;;;;;;;12.38;6.65;;;;;;;-4.67;70.52;97630.66;359527;111;1963978;-71
2021/01/30 02:07:07;;;;;;;10.74;6.20;;;;;;;-4.61;70.64;97639.72;317976;111;2109417;-71
2021/01/30 02:08:16;;;;;;;12.59;6.66;;;;;;;-4.56;70.39;97632.16;360347;110;1961907;-70
2021/01/30 02:09:24;;;;;;;12.29;6.73;;;;;;;-4.53;70.11;97636.29;355806;110;1961933;-71
2021/01/30 02:10:39;;;;;;;10.91;6.30;;;;;;;-4.54;69.77;97635.47;333937;111;2520997;-71
2021/01/30 02:12:07;;;;;;;13.70;6.49;;;;;;;-4.52;69.88;97630.05;337304;110;2464109;-71
2021/01/30 02:13:16;;;;;;;14.29;7.17;;;;;;;-4.50;69.83;97626.27;355812;110;1961899;-72
2021/01/30 02:14:22;;;;;;;13.58;6.68;;;;;;;-4.54;69.77;97634.66;356233;110;1962970;-71
2021/01/30 02:15:28;;;;;;;12.18;6.66;;;;;;;-4.60;69.66;97637.91;314972;113;2201846;-71
2021/01/30 02:16:44;;;;;;;12.12;7.01;;;;;;;-4.66;69.57;97640.22;360219;110;1962055;-71
2021/01/30 02:18:09;;;;;;;12.09;7.03;;;;;;;-4.76;69.55;97636.04;358079;110;1961974;-71
2021/01/30 02:19:41;;;;;;;14.99;7.43;;;;;;;-4.88;69.62;97632.88;312180;110;2895877;-71
2021/01/30 02:21:09;;;;;;;14.05;7.77;;;;;;;-5.00;69.66;97640.25;359337;111;1961982;-71
2021/01/30 02:22:33;;;;;;;14.19;7.38;;;;;;;-5.11;69.82;97636.09;349211;110;1962017;-71
2021/01/30 02:23:51;;;;;;;13.75;7.88;;;;;;;-5.22;70.03;97630.25;343151;108;1961982;-71
2021/01/30 02:25:17;;;;;;;13.03;7.49;;;;;;;-5.34;70.13;97630.52;356009;112;1961940;-70
2021/01/30 02:26:45;;;;;;;12.76;6.59;;;;;;;-5.43;70.42;97634.06;351123;114;1962038;-71
2021/01/30 02:28:24;;;;;;;10.35;6.37;;;;;;;-5.46;70.76;97623.86;326971;115;2492069;-70
2021/01/30 02:29:50;;;;;;;12.14;6.36;;;;;;;-5.46;71.03;97623.86;326741;115;2386221;-70
2021/01/30 02:31:05;;;;;;;15.63;7.06;;;;;;;-5.38;71.01;97623.09;349818;112;1962867;-70
2021/01/30 02:32:23;;;;;;;14.82;7.24;;;;;;;-5.33;70.91;97628.71;347224;114;1963015;-70
2021/01/30 02:33:35;;;;;;;10.71;5.93;;;;;;;-5.28;71.15;97626.44;330913;112;1964001;-70
2021/01/30 02:35:14;;;;;;;13.03;6.45;;;;;;;-5.21;71.02;97616.95;346318;114;1961956;-71
2021/01/30 02:36:36;;;;;;;12.04;5.75;;;;;;;-5.13;70.79;97616.98;345309;117;1964988;-72
2021/01/30 02:37:48;;;;;;;10.29;5.79;;;;;;;-5.04;70.90;97614.39;327505;116;2299992;-71
2021/01/30 02:39:04;;;;;;;11.97;6.10;;;;;;;-5.01;70.53;97614.06;345446;116;1962032;-71
2021/01/30 02:40:18;;;;;;;13.57;8.02;;;;;;;-4.98;70.56;97616.37;300689;117;2763111;31
2021/01/30 02:41:27;;;;;;;14.67;6.99;;;;;;;-4.92;70.70;97619.22;352094;111;1961979;-71
2021/01/30 02:42:42;;;;;;;16.92;9.34;;;;;;;-4.87;70.67;97616.09;353960;113;1962029;-71
2021/01/30 02:43:49;;;;;;;16.79;8.91;;;;;;;-4.83;70.59;97614.80;351282;113;1961896;-71
2021/01/30 02:45:04;;;;;;;17.30;8.74;;;;;;;-4.76;70.67;97612.34;348651;115;1965002;-71
2021/01/30 02:46:14;;;;;;;13.47;6.55;;;;;;;-4.70;70.49;97611.72;349922;114;1963933;-71
2021/01/30 02:47:23;;;;;;;19.34;8.57;;;;;;;-4.70;70.29;97614.35;350596;114;1961941;-72
2021/01/30 02:48:32;;;;;;;16.08;8.86;;;;;;;-4.67;70.17;97614.84;351823;114;1961977;-71
2021/01/30 02:49:42;;;;;;;13.37;7.54;;;;;;;-4.68;70.02;97605.30;345018;114;1961965;-71
2021/01/30 02:50:51;;;;;;;14.78;6.67;;;;;;;-4.68;70.13;97600.04;346509;114;1960963;-71
2021/01/30 02:52:03;;;;;;;14.62;7.05;;;;;;;-4.61;70.47;97610.74;308403;113;2150367;-70
2021/01/30 02:53:09;;;;;;;14.70;7.06;;;;;;;-4.59;70.02;97605.33;349003;114;1962024;-71
2021/01/30 02:54:14;;;;;;;15.52;7.08;;;;;;;-4.60;69.80;97608.92;349062;115;1961934;-71
2021/01/30 02:55:21;;;;;;;12.19;6.52;;;;;;;-4.60;69.74;97601.88;341750;113;2216320;-71
2021/01/30 02:56:29;;;;;;;15.61;8.54;;;;;;;-4.59;69.57;97595.61;351733;113;1961948;-71
2021/01/30 02:57:36;;;;;;;13.93;7.78;;;;;;;-4.58;69.79;97601.70;319134;113;2010480;-71
2021/01/30 02:58:48;;;;;;;13.56;8.44;;;;;;;-4.65;69.68;97598.89;350183;113;1961937;-71
2021/01/30 02:59:56;;;;;;;12.85;7.49;;;;;;;-4.71;69.92;97607.41;353007;113;1961087;-71
2021/01/30 03:01:04;;;;;;;16.46;7.72;;;;;;;-4.80;70.24;97605.76;320042;113;1978836;-71
2021/01/30 03:02:11;;;;;;;12.96;7.74;;;;;;;-4.89;70.23;97605.73;351076;113;1963013;-71
2021/01/30 03:03:25;;;;;;;14.48;7.87;;;;;;;-4.98;70.41;97608.48;311876;115;2105295;-71
2021/01/30 03:04:43;;;;;;;14.64;8.29;;;;;;;-5.03;70.58;97613.39;358436;113;1961993;-70
2021/01/30 03:05:52;;;;;;;15.07;7.44;;;;;;;-5.04;70.62;97614.39;318099;110;2770991;-71
2021/01/30 03:07:05;;;;;;;13.45;7.06;;;;;;;-5.03;70.65;97613.39;357690;110;1962001;-71
2021/01/30 03:08:31;;;;;;;18.01;8.18;;;;;;;-5.02;70.51;97618.52;360108;110;1961927;-71
2021/01/30 03:10:02;;;;;;;12.76;7.68;;;;;;;-5.00;70.53;97610.44;354942;113;1962016;-70
2021/01/30 03:11:14;;;;;;;13.65;7.39;;;;;;;-4.93;70.44;97614.92;320918;112;2949977;-71
2021/01/30 03:12:45;;;;;;;14.62;7.57;;;;;;;-4.90;70.29;97611.14;355020;110;1960804;-71
2021/01/30 03:14:00;;;;;;;14.33;7.66;;;;;;;-4.84;70.27;97607.89;342813;114;1961988;-71
2021/01/30 03:15:25;;;;;;;14.84;8.05;;;;;;;-4.80;70.23;97606.58;302921;116;2891963;-70
2021/01/30 03:16:38;;;;;;;13.64;7.22;;;;;;;-4.76;70.02;97604.44;343352;112;1961769;-70
2021/01/30 03:17:47;;;;;;;12.52;6.64;;;;;;;-4.72;69.82;97598.70;355112;114;1962940;-71
2021/01/30 03:18:56;;;;;;;13.89;7.02;;;;;;;-4.68;69.87;97602.67;353947;114;1963996;-71
2021/01/30 03:20:04;;;;;;;13.02;7.65;;;;;;;-4.65;69.67;97602.34;354303;112;1964972;-71
2021/01/30 03:21:12;;;;;;;15.44;8.40;;;;;;;-4.62;69.59;97600.38;353306;112;1961993;-71
2021/01/30 03:22:18;;;;;;;14.74;8.30;;;;;;;-4.65;69.41;97604.16;318979;114;2206949;-71
2021/01/30 03:23:24;;;;;;;16.19;8.42;;;;;;;-4.72;69.31;97593.43;354908;113;1961862;-70
2021/01/30 03:24:30;;;;;;;15.78;9.21;;;;;;;-4.80;69.39;97603.13;354156;112;1960698;-72
2021/01/30 03:25:38;;;;;;;14.51;9.36;;;;;;;-4.89;69.42;97599.64;319448;112;2694965;-71
2021/01/30 03:26:47;;;;;;;15.06;8.74;;;;;;;-4.99;69.56;97598.95;313467;111;2196988;-69
2021/01/30 03:27:56;;;;;;;18.78;8.65;;;;;;;-5.06;69.60;97597.92;361905;110;1961973;-70
2021/01/30 03:29:01;;;;;;;17.10;9.10;;;;;;;-5.16;69.84;97598.88;367167;108;1962046;-70
2021/01/30 03:30:10;;;;;;;14.12;8.38;;;;;;;-5.21;69.87;97601.16;365017;108;1962013;-71
2021/01/30 03:31:17;;;;;;;14.18;8.37;;;;;;;-5.26;70.00;97598.17;366308;108;1962049;-70
2021/01/30 03:32:25;;;;;;;17.53;8.40;;;;;;;-5.34;70.23;97593.69;346263;109;1961975;-70
2021/01/30 03:33:31;;;;;;;16.48;10.07;;;;;;;-5.40;70.37;97594.32;366960;108;1961989;-70
2021/01/30 03:34:37;;;;;;;13.03;7.95;;;;;;;-5.43;70.38;97599.05;319777;108;2195508;-70
2021/01/30 03:35:43;;;;;;;15.12;7.41;;;;;;;-5.41;70.46;97594.46;367623;108;1961923;-71
2021/01/30 03:36:49;;;;;;;13.74;7.83;;;;;;;-5.37;70.60;97594.00;367038;109;1961960;-71
2021/01/30 03:37:54;;;;;;;11.98;6.94;;;;;;;-5.31;70.58;97600.44;316197;110;2784035;-70
2021/01/30 03:39:00;;;;;;;15.73;7.58;;;;;;;-5.25;70.60;97589.28;339424;108;1962924;-71
2021/01/30 03:40:08;;;;;;;13.85;7.54;;;;;;;-5.18;70.51;97590.31;365287;109;1961890;-70
2021/01/30 03:41:14;;;;;;;15.82;8.00;;;;;;;-5.11;70.52;97588.70;329822;108;2016407;-70
2021/01/30 03:42:19;;;;;;;12.86;6.88;;;;;;;-5.04;70.40;97593.33;359008;108;1961741;-70
2021/01/30 03:43:25;;;;;;;15.18;7.93;;;;;;;-4.98;70.36;97590.88;351828;113;1961994;-71
2021/01/30 03:44:31;;;;;;;14.40;7.31;;;;;;;-4.91;70.27;97599.80;345726;115;1961959;-70
2021/01/30 03:45:38;;;;;;;14.72;7.85;;;;;;;-4.83;70.26;97595.55;327069;117;1960732;-71
2021/01/30 03:46:45;;;;;;;16.13;7.60;;;;;;;-4.75;70.23;97599.02;344342;116;1962047;-71
2021/01/30 03:47:51;;;;;;;15.29;7.54;;;;;;;-4.69;69.82;97594.92;330956;115;2216962;-71
2021/01/30 03:48:56;;;;;;;13.13;6.79;;;;;;;-4.63;69.89;97596.94;333332;115;1961961;-71
2021/01/30 03:50:02;;;;;;;12.93;7.28;;;;;;;-4.59;69.48;97594.79;343407;115;1961922;-71
2021/01/30 03:51:08;;;;;;;13.70;8.01;;;;;;;-4.56;69.68;97597.91;342785;115;1963045;-70
2021/01/30 03:52:13;;;;;;;13.58;7.54;;;;;;;-4.57;69.43;97596.28;316349;118;2232001;-71
2021/01/30 03:53:19;;;;;;;11.74;7.31;;;;;;;-4.61;69.52;97591.48;328963;115;1961974;-70
2021/01/30 03:54:24;;;;;;;14.43;8.94;;;;;;;-4.67;69.55;97590.32;343411;115;1963009;-71
2021/01/30 03:55:29;;;;;;;15.41;8.25;;;;;;;-4.72;69.56;97595.24;341597;118;1961997;-71
2021/01/30 03:56:36;;;;;;;14.04;8.37;;;;;;;-4.79;69.68;97595.08;301276;115;2847000;-71
2021/01/30 03:57:42;;;;;;;14.85;8.66;;;;;;;-4.84;69.81;97601.78;335281;115;1961874;-71
2021/01/30 03:58:47;;;;;;;15.33;9.61;;;;;;;-5.52;69.67;97495.59;340715;115;1961949;-71
2021/01/30 03:59:53;;;;;;;16.27;8.89;;;;;;;-4.95;69.82;97594.99;340117;115;1960923;-70
2021/01/30 04:00:58;;;;;;;18.48;9.24;;;;;;;-4.99;69.91;97604.21;317081;115;2505934;-71
2021/01/30 04:02:07;;;;;;;14.09;8.42;;;;;;;-5.02;69.74;97594.00;320523;118;1961981;-70
2021/01/30 04:03:12;;;;;;;15.00;9.02;;;;;;;-5.07;69.84;97601.55;303450;116;2236009;-71
2021/01/30 04:04:18;;;;;;;17.86;9.03;;;;;;;-5.13;70.04;97595.11;343927;116;1964046;-71
2021/01/30 04:05:25;;;;;;;15.44;8.19;;;;;;;-5.14;69.91;97598.70;342836;118;1961946;-71
2021/01/30 04:06:34;;;;;;;16.23;9.34;;;;;;;-5.19;70.01;97598.34;343635;110;1961941;-72
2021/01/30 04:07:40;;;;;;;16.01;8.39;;;;;;;-5.22;70.23;97594.22;334554;113;2394916;-71
2021/01/30 04:08:45;;;;;;;15.89;8.86;;;;;;;-5.19;70.29;97596.53;341192;111;1963956;-71
2021/01/30 04:09:50;;;;;;;15.86;9.07;;;;;;;-5.20;70.54;97594.90;351725;113;1961953;-71
2021/01/30 04:10:56;;;;;;;11.64;7.47;;;;;;;-5.15;70.59;97603.15;351656;113;1961953;-71
2021/01/30 04:12:02;;;;;;;14.34;7.27;;;;;;;-5.08;70.58;97603.33;351852;115;1961902;-71
2021/01/30 04:13:10;;;;;;;14.91;7.80;;;;;;;-5.01;70.48;97600.91;331614;108;2386521;-71
2021/01/30 04:14:17;;;;;;;13.31;7.71;;;;;;;-4.93;70.50;97590.41;331311;119;1962881;-71
2021/01/30 04:15:25;;;;;;;16.34;7.89;;;;;;;-4.82;70.44;97594.55;294444;121;2075888;-71
2021/01/30 04:16:32;;;;;;;15.45;8.07;;;;;;;-4.75;70.20;97593.75;328811;121;1964021;-71
2021/01/30 04:17:38;;;;;;;12.48;7.27;;;;;;;-4.66;70.06;97592.81;331628;120;1961956;-71
2021/01/30 04:18:44;;;;;;;13.03;7.16;;;;;;;-4.58;70.00;97585.89;331510;120;1961999;-71
2021/01/30 04:19:50;;;;;;;12.74;7.19;;;;;;;-4.52;69.78;97587.90;297779;120;2691010;-71
2021/01/30 04:20:55;;;;;;;14.82;7.49;;;;;;;-4.45;69.62;97591.52;314463;120;1962002;-71
2021/01/30 04:22:00;;;;;;;13.24;7.26;;;;;;;-4.35;69.70;97591.38;332128;120;1962003;-71
2021/01/30 04:23:07;;;;;;;14.42;7.16;;;;;;;-4.33;69.27;97586.77;332329;122;1962965;-71
2021/01/30 04:24:12;;;;;;;14.06;8.53;;;;;;;-4.35;69.22;97589.55;315765;120;2341012;-71
2021/01/30 04:25:20;;;;;;;14.75;9.07;;;;;;;-4.37;69.37;97588.89;323207;118;1960936;-71
2021/01/30 04:26:26;;;;;;;15.94;8.93;;;;;;;-4.40;69.29;97593.67;312131;117;2565935;-71
2021/01/30 04:27:32;;;;;;;16.61;8.79;;;;;;;-4.48;69.31;97583.94;320589;117;1962015;-71
2021/01/30 04:28:37;;;;;;;14.92;8.61;;;;;;;-4.54;69.35;97576.69;339403;117;1962026;-71
2021/01/30 04:29:54;;;;;;;16.50;8.96;;;;;;;-4.61;69.47;97580.95;337357;117;1962014;-71
2021/01/30 04:30:59;;;;;;;17.02;10.34;;;;;;;-4.65;69.56;97588.36;323639;115;1963997;-71
2021/01/30 04:32:14;;;;;;;19.27;10.77;;;;;;;-4.71;69.71;97586.34;349737;115;1962045;-71
2021/01/30 04:33:19;;;;;;;17.48;10.74;;;;;;;-4.77;69.79;97595.72;351945;115;1961879;-71
2021/01/30 04:34:25;;;;;;;18.01;11.12;;;;;;;-4.83;69.85;97591.09;342361;115;1962038;-71
2021/01/30 04:35:34;;;;;;;17.39;10.16;;;;;;;-4.87;69.91;97597.66;320304;118;2459971;-71
2021/01/30 04:36:41;;;;;;;20.12;11.91;;;;;;;-4.90;69.86;97600.61;334207;117;1961919;-71
2021/01/30 04:37:46;;;;;;;20.64;12.46;;;;;;;-4.96;69.92;97601.25;342783;116;1963019;-71
2021/01/30 04:38:51;;;;;;;20.09;12.09;;;;;;;-5.02;70.05;97605.35;341046;118;1961895;-71
2021/01/30 04:39:57;;;;;;;19.99;11.71;;;;;;;-5.06;70.01;97604.00;338661;118;1961954;-71
2021/01/30 04:41:06;;;;;;;17.64;10.38;;;;;;;-5.08;69.84;97605.96;311865;117;2573950;-71
2021/01/30 04:42:22;;;;;;;15.04;9.37;;;;;;;-5.12;70.19;97604.64;293119;121;2779924;-71
2021/01/30 04:43:31;;;;;;;16.34;9.77;;;;;;;-5.10;70.34;97608.77;314821;116;1963016;-71
2021/01/30 04:44:43;;;;;;;16.01;8.92;;;;;;;-5.06;70.31;97604.00;318687;118;1962937;-72
2021/01/30 04:45:59;;;;;;;18.09;10.36;;;;;;;-5.04;70.35;97603.86;340207;116;1961992;-71
2021/01/30 04:47:25;;;;;;;17.59;10.06;;;;;;;-5.00;70.39;97605.17;290199;119;2835981;-71
2021/01/30 04:49:01;;;;;;;15.87;10.02;;;;;;;-4.95;70.44;97603.74;341136;117;1961915;-71
2021/01/30 04:50:26;;;;;;;17.63;10.58;;;;;;;-4.85;70.33;97614.13;340063;117;1962068;-71
2021/01/30 04:51:40;;;;;;;17.29;9.38;;;;;;;-4.75;70.25;97606.11;339295;117;1962031;-72
2021/01/30 04:52:52;;;;;;;18.16;10.88;;;;;;;-4.69;70.20;97603.64;340328;117;1962100;-71
2021/01/30 04:54:16;;;;;;;;;;;;;;;-4.61;70.03;97610.74;309967;118;2233943;-72
2021/01/30 04:55:31;;;;;;;23.31;10.74;;;;;;;-4.52;69.99;97614.25;322404;117;2881948;-72
2021/01/30 04:57:05;;;;;;;24.04;12.66;;;;;;;-4.43;69.86;97600.91;327807;117;1961983;-71
2021/01/30 04:58:17;;;;;;;25.87;13.88;;;;;;;-4.33;69.78;97605.22;323769;117;2216967;-70
2021/01/30 04:59:39;;;;;;;;;;;;;;;-4.26;69.62;97607.05;335772;119;1960883;-71
2021/01/30 05:01:05;;;;;;;20.58;11.49;;;;;;;-4.28;69.50;97605.56;340117;114;1959756;-71
2021/01/30 05:02:27;;;;;;;23.30;13.14;;;;;;;-4.33;69.43;97602.59;338858;117;1961927;-71
2021/01/30 05:03:51;;;;;;;23.60;13.11;;;;;;;-4.40;69.47;97602.39;324947;110;1960665;-71
2021/01/30 05:04:59;;;;;;;22.61;12.78;;;;;;;-4.46;69.52;97608.32;301869;116;2105131;-71
2021/01/30 05:06:09;;;;;;;21.80;13.80;;;;;;;-4.52;69.55;97593.17;339051;117;1962090;-71
2021/01/30 05:07:37;;;;;;;22.42;13.36;;;;;;;-4.58;69.52;97594.61;310781;119;2624122;-71
2021/01/30 05:08:52;;;;;;;21.88;12.16;;;;;;;-4.63;69.62;97596.94;342784;109;1963005;-71
2021/01/30 05:10:22;;;;;;;22.03;12.09;;;;;;;-4.70;69.81;97598.55;360469;109;1962953;-71
2021/01/30 05:11:31;;;;;;;26.22;15.46;;;;;;;-4.76;69.95;97596.53;342437;109;2355951;-71
2021/01/30 05:12:52;;;;;;;24.59;14.52;;;;;;;-4.83;70.27;97598.18;329021;109;2615975;-71
2021/01/30 05:14:04;;;;;;;20.13;12.03;;;;;;;-4.88;70.32;97596.84;358215;110;1962937;-71
2021/01/30 05:15:15;;;;;;;;;;;;;;;-4.90;70.15;97596.16;314246;113;2801022;-71
2021/01/30 05:16:33;;;;;;;18.23;9.73;;;;;;;-4.93;70.59;97599.12;308824;113;2191706;-71
2021/01/30 05:17:42;;;;;;;18.71;10.58;;;;;;;-4.90;70.45;97595.34;355683;111;1961944;-70